sensor_id;sensor_type;location;lat;lon;timestamp;P1;P2;P0
80628;PMS5003;69983;42.370;-71.210;2023-06-14T00:00:40;7;6;
80628;PMS5003;69983;42.370;-71.210;2023-06-14T00:02:41;83;72;
80628;PMS5003;69983;42.370;-71.210;2023-06-14T00:04:41;55;54;
80628;PMS5003;69983;42.370;-71.210;2023-06-14T00:06:41;40;39;
80628;PMS5003;69983;42.370;-71.210;2023-06-14T00:08:42;180;149;
80628;PMS5003;69983;42.370;-71.210;2023-06-14T00:10:42;136;109;
80628;PMS5003;69983;42.370;-71.210;2023-06-14T00:12:42;98;82;
80628;PMS5003;69983;42.370;-71.210;2023-06-14T00:14:44;70;60;
80628;PMS5003;69983;42.370;-71.210;2023-06-14T00:16:44;65;58;
80628;PMS5003;69983;42.370;-71.210;2023-06-14T00:18:44;57;52;
80628;PMS5003;69983;42.370;-71.210;2023-06-14T00:20:44;43;37;
80628;PMS5003;69983;42.370;-71.210;2023-06-14T00:22:44;35;31;
80628;PMS5003;69983;42.370;-71.210;2023-06-14T00:24:45;29;25;
80628;PMS5003;69983;42.370;-71.210;2023-06-14T00:26:46;24;23;
80628;PMS5003;69983;42.370;-71.210;2023-06-14T00:28:47;157;127;
80628;PMS5003;69983;42.370;-71.210;2023-06-14T00:30:47;208;180;
80628;PMS5003;69983;42.370;-71.210;2023-06-14T00:32:47;167;143;
80628;PMS5003;69983;42.370;-71.210;2023-06-14T00:34:48;266;232;
80628;PMS5003;69983;42.370;-71.210;2023-06-14T00:36:49;322;284;
80628;PMS5003;69983;42.370;-71.210;2023-06-14T00:38:49;253;213;
80628;PMS5003;69983;42.370;-71.210;2023-06-14T00:40:50;212;185;
80628;PMS5003;69983;42.370;-71.210;2023-06-14T00:42:50;166;146;
80628;PMS5003;69983;42.370;-71.210;2023-06-14T00:44:51;305;261;
80628;PMS5003;69983;42.370;-71.210;2023-06-14T00:46:51;298;264;
80628;PMS5003;69983;42.370;-71.210;2023-06-14T00:48:52;253;224;
80628;PMS5003;69983;42.370;-71.210;2023-06-14T00:50:52;212;190;
80628;PMS5003;69983;42.370;-71.210;2023-06-14T00:52:53;189;168;
80628;PMS5003;69983;42.370;-71.210;2023-06-14T00:54:54;135;126;
80628;PMS5003;69983;42.370;-71.210;2023-06-14T00:56:54;119;109;
80628;PMS5003;69983;42.370;-71.210;2023-06-14T00:58:54;114;97;
80628;PMS5003;69983;42.370;-71.210;2023-06-14T01:00:55;101;85;
80628;PMS5003;69983;42.370;-71.210;2023-06-14T01:02:55;83;73;
80628;PMS5003;69983;42.370;-71.210;2023-06-14T01:04:56;125;113;
80628;PMS5003;69983;42.370;-71.210;2023-06-14T01:06:58;155;140;
80628;PMS5003;69983;42.370;-71.210;2023-06-14T01:09:00;233;187;
80628;PMS5003;69983;42.370;-71.210;2023-06-14T01:11:00;161;127;
80628;PMS5003;69983;42.370;-71.210;2023-06-14T01:13:01;168;136;
80628;PMS5003;69983;42.370;-71.210;2023-06-14T01:14:59;152;114;
80628;PMS5003;69983;42.370;-71.210;2023-06-14T01:17:00;142;105;
80628;PMS5003;69983;42.370;-71.210;2023-06-14T01:19:00;155;108;
80628;PMS5003;69983;42.370;-71.210;2023-06-14T01:21:00;140;102;
80628;PMS5003;69983;42.370;-71.210;2023-06-14T01:23:00;116;85;
80628;PMS5003;69983;42.370;-71.210;2023-06-14T01:25:01;117;73;
80628;PMS5003;69983;42.370;-71.210;2023-06-14T01:27:02;80;56;
80628;PMS5003;69983;42.370;-71.210;2023-06-14T01:29:02;72;50;
80628;PMS5003;69983;42.370;-71.210;2023-06-14T01:31:03;237;197;
80628;PMS5003;69983;42.370;-71.210;2023-06-14T01:33:03;206;158;
80628;PMS5003;69983;42.370;-71.210;2023-06-14T01:35:04;172;153;
80628;PMS5003;69983;42.370;-71.210;2023-06-14T01:37:04;201;143;
80628;PMS5003;69983;42.370;-71.210;2023-06-14T01:39:04;177;122;
80628;PMS5003;69983;42.370;-71.210;2023-06-14T01:41:05;172;120;
80628;PMS5003;69983;42.370;-71.210;2023-06-14T01:43:05;144;97;
80628;PMS5003;69983;42.370;-71.210;2023-06-14T01:45:06;124;93;
80628;PMS5003;69983;42.370;-71.210;2023-06-14T01:47:06;100;76;
80628;PMS5003;69983;42.370;-71.210;2023-06-14T01:49:07;114;70;
80628;PMS5003;69983;42.370;-71.210;2023-06-14T01:51:08;84;58;
80628;PMS5003;69983;42.370;-71.210;2023-06-14T01:53:08;74;54;
80628;PMS5003;69983;42.370;-71.210;2023-06-14T01:55:08;69;44;
80628;PMS5003;69983;42.370;-71.210;2023-06-14T01:57:08;51;37;
80628;PMS5003;69983;42.370;-71.210;2023-06-14T01:59:09;50;40;
80628;PMS5003;69983;42.370;-71.210;2023-06-14T02:01:09;154;132;
80628;PMS5003;69983;42.370;-71.210;2023-06-14T02:03:09;164;127;
80628;PMS5003;69983;42.370;-71.210;2023-06-14T02:05:10;170;134;
80628;PMS5003;69983;42.370;-71.210;2023-06-14T02:07:11;146;113;
80628;PMS5003;69983;42.370;-71.210;2023-06-14T02:09:11;137;104;
80628;PMS5003;69983;42.370;-71.210;2023-06-14T02:11:11;136;87;
80628;PMS5003;69983;42.370;-71.210;2023-06-14T02:13:11;105;73;
80628;PMS5003;69983;42.370;-71.210;2023-06-14T02:15:12;98;71;
80628;PMS5003;69983;42.370;-71.210;2023-06-14T02:17:13;90;67;
80628;PMS5003;69983;42.370;-71.210;2023-06-14T02:19:13;118;71;
80628;PMS5003;69983;42.370;-71.210;2023-06-14T02:21:13;75;50;
80628;PMS5003;69983;42.370;-71.210;2023-06-14T02:23:14;62;43;
80628;PMS5003;69983;42.370;-71.210;2023-06-14T02:25:14;57;41;
80628;PMS5003;69983;42.370;-71.210;2023-06-14T02:27:14;111;89;
80628;PMS5003;69983;42.370;-71.210;2023-06-14T02:29:14;142;106;
80628;PMS5003;69983;42.370;-71.210;2023-06-14T02:31:14;103;82;
80628;PMS5003;69983;42.370;-71.210;2023-06-14T02:33:15;117;86;
80628;PMS5003;69983;42.370;-71.210;2023-06-14T02:35:15;103;90;
80628;PMS5003;69983;42.370;-71.210;2023-06-14T02:37:16;121;76;
80628;PMS5003;69983;42.370;-71.210;2023-06-14T02:39:15;116;77;
80628;PMS5003;69983;42.370;-71.210;2023-06-14T02:41:16;118;73;
80628;PMS5003;69983;42.370;-71.210;2023-06-14T02:43:17;106;66;
80628;PMS5003;69983;42.370;-71.210;2023-06-14T02:45:17;87;57;
80628;PMS5003;69983;42.370;-71.210;2023-06-14T02:47:18;71;51;
80628;PMS5003;69983;42.370;-71.210;2023-06-14T02:49:18;60;43;
80628;PMS5003;69983;42.370;-71.210;2023-06-14T02:51:18;47;35;
80628;PMS5003;69983;42.370;-71.210;2023-06-14T02:53:18;81;58;
80628;PMS5003;69983;42.370;-71.210;2023-06-14T02:55:19;100;79;
80628;PMS5003;69983;42.370;-71.210;2023-06-14T02:57:19;131;95;
80628;PMS5003;69983;42.370;-71.210;2023-06-14T02:59:20;164;104;
80628;PMS5003;69983;42.370;-71.210;2023-06-14T03:01:21;119;83;
80628;PMS5003;69983;42.370;-71.210;2023-06-14T03:03:21;109;78;
80628;PMS5003;69983;42.370;-71.210;2023-06-14T03:05:22;99;64;
80628;PMS5003;69983;42.370;-71.210;2023-06-14T03:07:22;96;59;
80628;PMS5003;69983;42.370;-71.210;2023-06-14T03:09:23;97;60;
80628;PMS5003;69983;42.370;-71.210;2023-06-14T03:11:24;66;46;
80628;PMS5003;69983;42.370;-71.210;2023-06-14T03:13:24;44;38;
80628;PMS5003;69983;42.370;-71.210;2023-06-14T03:15:25;156;142;
80628;PMS5003;69983;42.370;-71.210;2023-06-14T03:17:25;246;189;
80628;PMS5003;69983;42.370;-71.210;2023-06-14T03:19:26;185;153;
80628;PMS5003;69983;42.370;-71.210;2023-06-14T03:21:26;194;165;
80628;PMS5003;69983;42.370;-71.210;2023-06-14T03:23:27;144;116;
80628;PMS5003;69983;42.370;-71.210;2023-06-14T03:25:28;114;89;
80628;PMS5003;69983;42.370;-71.210;2023-06-14T03:27:28;104;86;
80628;PMS5003;69983;42.370;-71.210;2023-06-14T03:29:28;114;81;
80628;PMS5003;69983;42.370;-71.210;2023-06-14T03:31:28;104;72;
80628;PMS5003;69983;42.370;-71.210;2023-06-14T03:33:29;74;57;
80628;PMS5003;69983;42.370;-71.210;2023-06-14T03:35:29;75;52;
80628;PMS5003;69983;42.370;-71.210;2023-06-14T03:37:30;50;38;
80628;PMS5003;69983;42.370;-71.210;2023-06-14T03:39:31;52;38;
80628;PMS5003;69983;42.370;-71.210;2023-06-14T03:41:31;52;31;
80628;PMS5003;69983;42.370;-71.210;2023-06-14T03:43:31;37;25;
80628;PMS5003;69983;42.370;-71.210;2023-06-14T03:45:32;37;27;
80628;PMS5003;69983;42.370;-71.210;2023-06-14T03:47:33;155;127;
80628;PMS5003;69983;42.370;-71.210;2023-06-14T03:49:33;95;80;
80628;PMS5003;69983;42.370;-71.210;2023-06-14T03:51:33;127;95;
80628;PMS5003;69983;42.370;-71.210;2023-06-14T03:53:33;130;94;
80628;PMS5003;69983;42.370;-71.210;2023-06-14T03:55:34;103;79;
80628;PMS5003;69983;42.370;-71.210;2023-06-14T03:57:34;92;65;
80628;PMS5003;69983;42.370;-71.210;2023-06-14T03:59:35;83;57;
80628;PMS5003;69983;42.370;-71.210;2023-06-14T04:01:36;71;51;
80628;PMS5003;69983;42.370;-71.210;2023-06-14T04:03:36;55;40;
80628;PMS5003;69983;42.370;-71.210;2023-06-14T04:05:36;82;58;
80628;PMS5003;69983;42.370;-71.210;2023-06-14T04:07:37;76;50;
80628;PMS5003;69983;42.370;-71.210;2023-06-14T04:09:38;62;37;
80628;PMS5003;69983;42.370;-71.210;2023-06-14T04:11:39;65;31;
80628;PMS5003;69983;42.370;-71.210;2023-06-14T04:13:39;44;23;
80628;PMS5003;69983;42.370;-71.210;2023-06-14T04:15:40;29;20;
80628;PMS5003;69983;42.370;-71.210;2023-06-14T04:17:40;38;27;
80628;PMS5003;69983;42.370;-71.210;2023-06-14T04:19:40;21;16;
80628;PMS5003;69983;42.370;-71.210;2023-06-14T04:21:40;29;17;
80628;PMS5003;69983;42.370;-71.210;2023-06-14T04:23:40;120;93;
80628;PMS5003;69983;42.370;-71.210;2023-06-14T04:25:41;128;98;
80628;PMS5003;69983;42.370;-71.210;2023-06-14T04:27:41;183;113;
80628;PMS5003;69983;42.370;-71.210;2023-06-14T04:29:42;101;80;
80628;PMS5003;69983;42.370;-71.210;2023-06-14T04:31:42;132;94;
80628;PMS5003;69983;42.370;-71.210;2023-06-14T04:33:43;88;61;
80628;PMS5003;69983;42.370;-71.210;2023-06-14T04:35:43;82;54;
80628;PMS5003;69983;42.370;-71.210;2023-06-14T04:37:44;74;51;
80628;PMS5003;69983;42.370;-71.210;2023-06-14T04:39:44;52;35;
80628;PMS5003;69983;42.370;-71.210;2023-06-14T04:41:45;37;26;
80628;PMS5003;69983;42.370;-71.210;2023-06-14T04:43:45;45;32;
80628;PMS5003;69983;42.370;-71.210;2023-06-14T04:45:45;40;25;
80628;PMS5003;69983;42.370;-71.210;2023-06-14T04:47:46;47;30;
80628;PMS5003;69983;42.370;-71.210;2023-06-14T04:49:47;47;29;
80628;PMS5003;69983;42.370;-71.210;2023-06-14T04:51:47;91;64;
80628;PMS5003;69983;42.370;-71.210;2023-06-14T04:53:47;162;118;
80628;PMS5003;69983;42.370;-71.210;2023-06-14T04:55:47;222;128;
80628;PMS5003;69983;42.370;-71.210;2023-06-14T04:57:48;219;143;
80628;PMS5003;69983;42.370;-71.210;2023-06-14T04:59:48;190;120;
80628;PMS5003;69983;42.370;-71.210;2023-06-14T05:01:48;164;96;
80628;PMS5003;69983;42.370;-71.210;2023-06-14T05:03:48;171;90;
80628;PMS5003;69983;42.370;-71.210;2023-06-14T05:05:48;129;78;
80628;PMS5003;69983;42.370;-71.210;2023-06-14T05:07:49;96;55;
80628;PMS5003;69983;42.370;-71.210;2023-06-14T05:09:49;66;50;
80628;PMS5003;69983;42.370;-71.210;2023-06-14T05:11:51;60;43;
80628;PMS5003;69983;42.370;-71.210;2023-06-14T05:13:51;55;41;
80628;PMS5003;69983;42.370;-71.210;2023-06-14T05:15:51;55;30;
80628;PMS5003;69983;42.370;-71.210;2023-06-14T05:17:53;42;30;
80628;PMS5003;69983;42.370;-71.210;2023-06-14T05:19:53;45;24;
80628;PMS5003;69983;42.370;-71.210;2023-06-14T05:21:53;35;20;
80628;PMS5003;69983;42.370;-71.210;2023-06-14T05:23:53;27;16;
80628;PMS5003;69983;42.370;-71.210;2023-06-14T05:25:53;26;20;
80628;PMS5003;69983;42.370;-71.210;2023-06-14T05:27:54;19;14;
80628;PMS5003;69983;42.370;-71.210;2023-06-14T05:29:54;20;10;
80628;PMS5003;69983;42.370;-71.210;2023-06-14T05:31:54;16;8;
80628;PMS5003;69983;42.370;-71.210;2023-06-14T05:33:54;338;264;
80628;PMS5003;69983;42.370;-71.210;2023-06-14T05:35:55;217;166;
80628;PMS5003;69983;42.370;-71.210;2023-06-14T05:37:56;137;119;
80628;PMS5003;69983;42.370;-71.210;2023-06-14T05:39:56;109;88;
80628;PMS5003;69983;42.370;-71.210;2023-06-14T05:41:57;271;227;
80628;PMS5003;69983;42.370;-71.210;2023-06-14T05:43:58;250;187;
80628;PMS5003;69983;42.370;-71.210;2023-06-14T05:45:58;207;165;
80628;PMS5003;69983;42.370;-71.210;2023-06-14T05:47:59;179;139;
80628;PMS5003;69983;42.370;-71.210;2023-06-14T05:49:59;148;116;
80628;PMS5003;69983;42.370;-71.210;2023-06-14T05:51:59;117;95;
80628;PMS5003;69983;42.370;-71.210;2023-06-14T05:54:00;102;79;
80628;PMS5003;69983;42.370;-71.210;2023-06-14T05:56:00;277;219;
80628;PMS5003;69983;42.370;-71.210;2023-06-14T05:58:00;359;290;
80628;PMS5003;69983;42.370;-71.210;2023-06-14T06:00:00;339;251;
80628;PMS5003;69983;42.370;-71.210;2023-06-14T06:02:01;254;207;
80628;PMS5003;69983;42.370;-71.210;2023-06-14T06:04:01;238;190;
80628;PMS5003;69983;42.370;-71.210;2023-06-14T06:06:01;158;130;
80628;PMS5003;69983;42.370;-71.210;2023-06-14T06:08:02;124;105;
80628;PMS5003;69983;42.370;-71.210;2023-06-14T06:10:03;105;86;
80628;PMS5003;69983;42.370;-71.210;2023-06-14T06:12:04;84;68;
80628;PMS5003;69983;42.370;-71.210;2023-06-14T06:14:04;54;43;
80628;PMS5003;69983;42.370;-71.210;2023-06-14T06:16:05;49;42;
80628;PMS5003;69983;42.370;-71.210;2023-06-14T06:18:05;42;33;
80628;PMS5003;69983;42.370;-71.210;2023-06-14T06:20:06;32;30;
80628;PMS5003;69983;42.370;-71.210;2023-06-14T06:22:06;32;28;
80628;PMS5003;69983;42.370;-71.210;2023-06-14T06:24:06;27;21;
80628;PMS5003;69983;42.370;-71.210;2023-06-14T06:26:06;24;20;
80628;PMS5003;69983;42.370;-71.210;2023-06-14T06:28:07;17;15;
80628;PMS5003;69983;42.370;-71.210;2023-06-14T06:30:08;14;13;
80628;PMS5003;69983;42.370;-71.210;2023-06-14T06:32:08;16;16;
80628;PMS5003;69983;42.370;-71.210;2023-06-14T06:34:09;19;14;
80628;PMS5003;69983;42.370;-71.210;2023-06-14T06:36:10;10;10;
80628;PMS5003;69983;42.370;-71.210;2023-06-14T06:38:10;10;10;
80628;PMS5003;69983;42.370;-71.210;2023-06-14T06:40:10;7;7;
80628;PMS5003;69983;42.370;-71.210;2023-06-14T06:42:11;9;9;
80628;PMS5003;69983;42.370;-71.210;2023-06-14T06:44:10;11;11;
80628;PMS5003;69983;42.370;-71.210;2023-06-14T06:46:11;9;9;
80628;PMS5003;69983;42.370;-71.210;2023-06-14T06:48:11;10;10;
80628;PMS5003;69983;42.370;-71.210;2023-06-14T06:50:11;129;97;
80628;PMS5003;69983;42.370;-71.210;2023-06-14T06:52:11;104;81;
80628;PMS5003;69983;42.370;-71.210;2023-06-14T06:54:12;66;53;
80628;PMS5003;69983;42.370;-71.210;2023-06-14T06:56:12;53;44;
80628;PMS5003;69983;42.370;-71.210;2023-06-14T06:58:13;36;31;
80628;PMS5003;69983;42.370;-71.210;2023-06-14T07:00:13;30;24;
80628;PMS5003;69983;42.370;-71.210;2023-06-14T07:02:13;28;23;
80628;PMS5003;69983;42.370;-71.210;2023-06-14T07:04:13;21;18;
80628;PMS5003;69983;42.370;-71.210;2023-06-14T07:06:14;17;15;
80628;PMS5003;69983;42.370;-71.210;2023-06-14T07:08:15;16;15;
80628;PMS5003;69983;42.370;-71.210;2023-06-14T07:10:15;18;15;
80628;PMS5003;69983;42.370;-71.210;2023-06-14T07:12:16;14;10;
80628;PMS5003;69983;42.370;-71.210;2023-06-14T07:14:16;16;10;
80628;PMS5003;69983;42.370;-71.210;2023-06-14T07:16:17;11;11;
80628;PMS5003;69983;42.370;-71.210;2023-06-14T07:18:17;14;8;
80628;PMS5003;69983;42.370;-71.210;2023-06-14T07:20:17;8;5;
80628;PMS5003;69983;42.370;-71.210;2023-06-14T07:22:17;8;6;
80628;PMS5003;69983;42.370;-71.210;2023-06-14T07:24:17;4;4;
80628;PMS5003;69983;42.370;-71.210;2023-06-14T07:26:18;6;5;
80628;PMS5003;69983;42.370;-71.210;2023-06-14T07:28:18;3;3;
80628;PMS5003;69983;42.370;-71.210;2023-06-14T07:30:19;4;4;
80628;PMS5003;69983;42.370;-71.210;2023-06-14T07:32:18;1;1;
80628;PMS5003;69983;42.370;-71.210;2023-06-14T07:34:18;4;4;
80628;PMS5003;69983;42.370;-71.210;2023-06-14T07:36:19;1;1;
80628;PMS5003;69983;42.370;-71.210;2023-06-14T07:38:20;3;3;
80628;PMS5003;69983;42.370;-71.210;2023-06-14T07:40:20;2;2;
80628;PMS5003;69983;42.370;-71.210;2023-06-14T07:42:20;1;1;
80628;PMS5003;69983;42.370;-71.210;2023-06-14T07:44:20;271;228;
80628;PMS5003;69983;42.370;-71.210;2023-06-14T07:46:21;199;155;
80628;PMS5003;69983;42.370;-71.210;2023-06-14T07:48:21;149;125;
80628;PMS5003;69983;42.370;-71.210;2023-06-14T07:50:21;136;109;
80628;PMS5003;69983;42.370;-71.210;2023-06-14T07:52:22;95;83;
80628;PMS5003;69983;42.370;-71.210;2023-06-14T07:54:23;78;65;
80628;PMS5003;69983;42.370;-71.210;2023-06-14T07:56:23;62;51;
80628;PMS5003;69983;42.370;-71.210;2023-06-14T07:58:24;45;41;
80628;PMS5003;69983;42.370;-71.210;2023-06-14T08:00:25;45;35;
80628;PMS5003;69983;42.370;-71.210;2023-06-14T08:02:25;30;25;
80628;PMS5003;69983;42.370;-71.210;2023-06-14T08:04:26;30;22;
80628;PMS5003;69983;42.370;-71.210;2023-06-14T08:06:26;26;19;
80628;PMS5003;69983;42.370;-71.210;2023-06-14T08:08:27;19;18;
80628;PMS5003;69983;42.370;-71.210;2023-06-14T08:10:27;15;12;
80628;PMS5003;69983;42.370;-71.210;2023-06-14T08:12:27;17;13;
80628;PMS5003;69983;42.370;-71.210;2023-06-14T08:14:28;13;12;
80628;PMS5003;69983;42.370;-71.210;2023-06-14T08:16:29;9;9;
80628;PMS5003;69983;42.370;-71.210;2023-06-14T08:18:29;13;9;
80628;PMS5003;69983;42.370;-71.210;2023-06-14T08:20:29;10;8;
80628;PMS5003;69983;42.370;-71.210;2023-06-14T08:22:29;11;7;
80628;PMS5003;69983;42.370;-71.210;2023-06-14T08:24:29;8;7;
80628;PMS5003;69983;42.370;-71.210;2023-06-14T08:26:29;9;6;
80628;PMS5003;69983;42.370;-71.210;2023-06-14T08:28:30;6;6;
80628;PMS5003;69983;42.370;-71.210;2023-06-14T08:30:30;3;3;
80628;PMS5003;69983;42.370;-71.210;2023-06-14T08:32:30;5;3;
80628;PMS5003;69983;42.370;-71.210;2023-06-14T08:34:30;3;3;
80628;PMS5003;69983;42.370;-71.210;2023-06-14T08:36:30;7;3;
80628;PMS5003;69983;42.370;-71.210;2023-06-14T08:38:30;4;3;
80628;PMS5003;69983;42.370;-71.210;2023-06-14T08:40:30;2;2;
80628;PMS5003;69983;42.370;-71.210;2023-06-14T08:42:30;2;1;
80628;PMS5003;69983;42.370;-71.210;2023-06-14T08:44:30;0;0;
80628;PMS5003;69983;42.370;-71.210;2023-06-14T08:46:31;1;1;
80628;PMS5003;69983;42.370;-71.210;2023-06-14T08:48:31;2;2;
80628;PMS5003;69983;42.370;-71.210;2023-06-14T08:50:31;1;1;
80628;PMS5003;69983;42.370;-71.210;2023-06-14T08:52:32;1;1;
80628;PMS5003;69983;42.370;-71.210;2023-06-14T08:54:31;1;1;
80628;PMS5003;69983;42.370;-71.210;2023-06-14T08:56:31;2;1;
80628;PMS5003;69983;42.370;-71.210;2023-06-14T08:58:31;0;0;
80628;PMS5003;69983;42.370;-71.210;2023-06-14T09:00:31;1;1;
80628;PMS5003;69983;42.370;-71.210;2023-06-14T09:02:31;0;0;
80628;PMS5003;69983;42.370;-71.210;2023-06-14T09:04:31;1;1;
80628;PMS5003;69983;42.370;-71.210;2023-06-14T09:06:31;0;0;
80628;PMS5003;69983;42.370;-71.210;2023-06-14T09:08:32;0;0;
80628;PMS5003;69983;42.370;-71.210;2023-06-14T09:10:32;1;1;
80628;PMS5003;69983;42.370;-71.210;2023-06-14T09:12:32;0;0;
80628;PMS5003;69983;42.370;-71.210;2023-06-14T09:14:33;0;0;
80628;PMS5003;69983;42.370;-71.210;2023-06-14T09:16:32;0;0;
80628;PMS5003;69983;42.370;-71.210;2023-06-14T09:18:34;0;0;
80628;PMS5003;69983;42.370;-71.210;2023-06-14T09:20:32;0;0;
80628;PMS5003;69983;42.370;-71.210;2023-06-14T09:22:32;0;0;
80628;PMS5003;69983;42.370;-71.210;2023-06-14T09:24:32;0;0;
80628;PMS5003;69983;42.370;-71.210;2023-06-14T09:26:33;0;0;
80628;PMS5003;69983;42.370;-71.210;2023-06-14T09:28:33;0;0;
80628;PMS5003;69983;42.370;-71.210;2023-06-14T09:30:33;0;0;
80628;PMS5003;69983;42.370;-71.210;2023-06-14T09:32:35;0;0;
80628;PMS5003;69983;42.370;-71.210;2023-06-14T09:34:33;0;0;
80628;PMS5003;69983;42.370;-71.210;2023-06-14T09:36:33;2;0;
80628;PMS5003;69983;42.370;-71.210;2023-06-14T09:38:34;0;0;
80628;PMS5003;69983;42.370;-71.210;2023-06-14T09:40:35;0;0;
80628;PMS5003;69983;42.370;-71.210;2023-06-14T09:42:33;0;0;
80628;PMS5003;69983;42.370;-71.210;2023-06-14T09:44:33;0;0;
80628;PMS5003;69983;42.370;-71.210;2023-06-14T09:46:34;0;0;
80628;PMS5003;69983;42.370;-71.210;2023-06-14T09:48:34;0;0;
80628;PMS5003;69983;42.370;-71.210;2023-06-14T09:50:34;0;0;
80628;PMS5003;69983;42.370;-71.210;2023-06-14T09:52:34;0;0;
80628;PMS5003;69983;42.370;-71.210;2023-06-14T09:54:34;0;0;
80628;PMS5003;69983;42.370;-71.210;2023-06-14T09:56:35;0;0;
80628;PMS5003;69983;42.370;-71.210;2023-06-14T09:58:34;0;0;
80628;PMS5003;69983;42.370;-71.210;2023-06-14T10:00:35;0;0;
80628;PMS5003;69983;42.370;-71.210;2023-06-14T10:02:35;0;0;
80628;PMS5003;69983;42.370;-71.210;2023-06-14T10:04:34;1;0;
80628;PMS5003;69983;42.370;-71.210;2023-06-14T10:06:35;0;0;
80628;PMS5003;69983;42.370;-71.210;2023-06-14T10:08:35;0;0;
80628;PMS5003;69983;42.370;-71.210;2023-06-14T10:10:35;0;0;
80628;PMS5003;69983;42.370;-71.210;2023-06-14T10:12:35;0;0;
80628;PMS5003;69983;42.370;-71.210;2023-06-14T10:14:35;0;0;
80628;PMS5003;69983;42.370;-71.210;2023-06-14T10:16:37;0;0;
80628;PMS5003;69983;42.370;-71.210;2023-06-14T10:18:38;0;0;
80628;PMS5003;69983;42.370;-71.210;2023-06-14T10:20:37;0;0;
80628;PMS5003;69983;42.370;-71.210;2023-06-14T10:22:37;0;0;
80628;PMS5003;69983;42.370;-71.210;2023-06-14T10:24:38;0;0;
80628;PMS5003;69983;42.370;-71.210;2023-06-14T10:26:39;0;0;
80628;PMS5003;69983;42.370;-71.210;2023-06-14T10:28:37;0;0;
80628;PMS5003;69983;42.370;-71.210;2023-06-14T10:30:36;1;0;
80628;PMS5003;69983;42.370;-71.210;2023-06-14T10:32:38;0;0;
80628;PMS5003;69983;42.370;-71.210;2023-06-14T10:34:38;0;0;
80628;PMS5003;69983;42.370;-71.210;2023-06-14T10:36:37;0;0;
80628;PMS5003;69983;42.370;-71.210;2023-06-14T10:38:37;0;0;
80628;PMS5003;69983;42.370;-71.210;2023-06-14T10:40:36;0;0;
80628;PMS5003;69983;42.370;-71.210;2023-06-14T10:42:36;0;0;
80628;PMS5003;69983;42.370;-71.210;2023-06-14T10:44:38;0;0;
80628;PMS5003;69983;42.370;-71.210;2023-06-14T10:46:37;0;0;
80628;PMS5003;69983;42.370;-71.210;2023-06-14T10:48:40;0;0;
80628;PMS5003;69983;42.370;-71.210;2023-06-14T10:50:37;0;0;
80628;PMS5003;69983;42.370;-71.210;2023-06-14T10:52:38;0;0;
80628;PMS5003;69983;42.370;-71.210;2023-06-14T10:54:37;0;0;
80628;PMS5003;69983;42.370;-71.210;2023-06-14T10:56:37;0;0;
80628;PMS5003;69983;42.370;-71.210;2023-06-14T10:58:37;0;0;
80628;PMS5003;69983;42.370;-71.210;2023-06-14T11:00:37;0;0;
80628;PMS5003;69983;42.370;-71.210;2023-06-14T11:03:05;0;0;
80628;PMS5003;69983;42.370;-71.210;2023-06-14T11:04:46;0;0;
80628;PMS5003;69983;42.370;-71.210;2023-06-14T11:06:44;0;0;
80628;PMS5003;69983;42.370;-71.210;2023-06-14T11:08:51;0;0;
80628;PMS5003;69983;42.370;-71.210;2023-06-14T11:10:38;0;0;
80628;PMS5003;69983;42.370;-71.210;2023-06-14T11:12:38;0;0;
80628;PMS5003;69983;42.370;-71.210;2023-06-14T11:14:38;0;0;
80628;PMS5003;69983;42.370;-71.210;2023-06-14T11:16:38;0;0;
80628;PMS5003;69983;42.370;-71.210;2023-06-14T11:18:38;0;0;
80628;PMS5003;69983;42.370;-71.210;2023-06-14T11:20:39;0;0;
80628;PMS5003;69983;42.370;-71.210;2023-06-14T11:22:39;0;0;
80628;PMS5003;69983;42.370;-71.210;2023-06-14T11:24:39;0;0;
80628;PMS5003;69983;42.370;-71.210;2023-06-14T11:26:39;0;0;
80628;PMS5003;69983;42.370;-71.210;2023-06-14T11:28:39;0;0;
80628;PMS5003;69983;42.370;-71.210;2023-06-14T11:30:39;0;0;
80628;PMS5003;69983;42.370;-71.210;2023-06-14T11:32:39;0;0;
80628;PMS5003;69983;42.370;-71.210;2023-06-14T11:34:39;0;0;
80628;PMS5003;69983;42.370;-71.210;2023-06-14T11:36:39;0;0;
80628;PMS5003;69983;42.370;-71.210;2023-06-14T11:38:40;0;0;
80628;PMS5003;69983;42.370;-71.210;2023-06-14T11:40:40;0;0;
80628;PMS5003;69983;42.370;-71.210;2023-06-14T11:42:40;0;0;
80628;PMS5003;69983;42.370;-71.210;2023-06-14T11:44:40;0;0;
80628;PMS5003;69983;42.370;-71.210;2023-06-14T11:46:40;0;0;
80628;PMS5003;69983;42.370;-71.210;2023-06-14T11:48:40;0;0;
80628;PMS5003;69983;42.370;-71.210;2023-06-14T11:50:40;0;0;
80628;PMS5003;69983;42.370;-71.210;2023-06-14T11:52:40;0;0;
80628;PMS5003;69983;42.370;-71.210;2023-06-14T11:54:40;0;0;
80628;PMS5003;69983;42.370;-71.210;2023-06-14T11:56:41;0;0;
80628;PMS5003;69983;42.370;-71.210;2023-06-14T11:58:42;0;0;
80628;PMS5003;69983;42.370;-71.210;2023-06-14T12:00:41;0;0;
80628;PMS5003;69983;42.370;-71.210;2023-06-14T12:02:41;0;0;
80628;PMS5003;69983;42.370;-71.210;2023-06-14T12:04:41;0;0;
80628;PMS5003;69983;42.370;-71.210;2023-06-14T12:06:41;0;0;
80628;PMS5003;69983;42.370;-71.210;2023-06-14T12:08:42;0;0;
80628;PMS5003;69983;42.370;-71.210;2023-06-14T12:10:41;0;0;
80628;PMS5003;69983;42.370;-71.210;2023-06-14T12:12:42;0;0;
80628;PMS5003;69983;42.370;-71.210;2023-06-14T12:14:42;0;0;
80628;PMS5003;69983;42.370;-71.210;2023-06-14T12:16:42;0;0;
80628;PMS5003;69983;42.370;-71.210;2023-06-14T12:18:42;0;0;
80628;PMS5003;69983;42.370;-71.210;2023-06-14T12:20:42;0;0;
80628;PMS5003;69983;42.370;-71.210;2023-06-14T12:22:52;0;0;
80628;PMS5003;69983;42.370;-71.210;2023-06-14T12:24:42;0;0;
80628;PMS5003;69983;42.370;-71.210;2023-06-14T12:26:42;0;0;
80628;PMS5003;69983;42.370;-71.210;2023-06-14T12:28:43;0;0;
80628;PMS5003;69983;42.370;-71.210;2023-06-14T12:30:42;0;0;
80628;PMS5003;69983;42.370;-71.210;2023-06-14T12:32:43;0;0;
80628;PMS5003;69983;42.370;-71.210;2023-06-14T12:34:43;0;0;
80628;PMS5003;69983;42.370;-71.210;2023-06-14T12:36:43;0;0;
80628;PMS5003;69983;42.370;-71.210;2023-06-14T12:38:43;0;0;
80628;PMS5003;69983;42.370;-71.210;2023-06-14T12:40:43;0;0;
80628;PMS5003;69983;42.370;-71.210;2023-06-14T12:42:44;0;0;
80628;PMS5003;69983;42.370;-71.210;2023-06-14T12:44:43;0;0;
80628;PMS5003;69983;42.370;-71.210;2023-06-14T12:46:43;0;0;
80628;PMS5003;69983;42.370;-71.210;2023-06-14T12:48:43;0;0;
80628;PMS5003;69983;42.370;-71.210;2023-06-14T12:50:44;0;0;
80628;PMS5003;69983;42.370;-71.210;2023-06-14T12:52:44;0;0;
80628;PMS5003;69983;42.370;-71.210;2023-06-14T12:54:44;0;0;
80628;PMS5003;69983;42.370;-71.210;2023-06-14T12:56:44;0;0;